Mohawk, Tennessee
Current Conditions -  °F | °C
As of 5:35 AM on Monday 20 Oct 2014 (Local Time) from KMOR Reporting Station
Clear Clear  
Wind Chill: 41°   Ceiling: Unl
Heat Index: 45°   Visibility: 10mi
Dew Point: 43°   Wind: 6mph
Humidity: 93%   Direction: 110°ESE
Pressure: 30.08"   Gusts: NA
Location:  36.2°N, 83.05°W
Report Text: KMOR 200935Z AUTO 11005KT 10SM CLR 07/06 A3008 RMK
Loading
Personal Weather Stations






























Interactive Weather Map
Tropical Storm Tracking
New forecast layout! Learn more

10-Day Weather Forecast

Advertisements
Track Severe Weather on mobile